Terminal Aerodrome Forecast
Issued by NWS Raleigh/Durham, NC

Home | Current Version | Previous Version | Text Only | Print | Product List | Glossary On
Versions: 1 2 3 4 5 6 7 8 9 10 11 12 13 14 15 16 17 18 19 20 21 22 23 24 25 26 27 28
000
FTUS42 KRAH 112327
TAFGSO
TAF
KGSO 112327Z 1200/1224 VRB04KT P6SM FEW140
     FM121500 27009KT P6SM SCT040
     FM121600 27011G23KT P6SM SCT040
     FM122300 29012G24KT P6SM FEW250=

USA.gov is the U.S. government's official web portal to all federal, state and local government web resources and services.